sensor_id;sensor_type;location;lat;lon;timestamp;pressure;altitude;pressure_sealevel;temperature;humidity
56632;BME280;42503;39.928;-75.152;2023-05-19T00:00:51;102456.72;;;24.61;34.06
56632;BME280;42503;39.928;-75.152;2023-05-19T00:10:53;102474.06;;;24.58;33.92
56632;BME280;42503;39.928;-75.152;2023-05-19T00:20:54;102482.44;;;24.58;34.06
56632;BME280;42503;39.928;-75.152;2023-05-19T00:30:56;102456.78;;;24.34;34.27
56632;BME280;42503;39.928;-75.152;2023-05-19T00:40:59;102518.28;;;24.56;34.26
56632;BME280;42503;39.928;-75.152;2023-05-19T00:51:01;102534.47;;;24.54;34.06
56632;BME280;42503;39.928;-75.152;2023-05-19T01:01:04;102549.84;;;24.51;34.36
56632;BME280;42503;39.928;-75.152;2023-05-19T01:11:07;102562.41;;;24.49;34.21
56632;BME280;42503;39.928;-75.152;2023-05-19T01:21:24;102582.84;;;24.49;34.17
56632;BME280;42503;39.928;-75.152;2023-05-19T01:31:26;102599.88;;;24.43;34.30
56632;BME280;42503;39.928;-75.152;2023-05-19T01:41:29;102613.06;;;24.47;34.37
56632;BME280;42503;39.928;-75.152;2023-05-19T01:51:32;102626.41;;;24.40;34.33
56632;BME280;42503;39.928;-75.152;2023-05-19T02:01:48;102610.56;;;24.24;34.63
56632;BME280;42503;39.928;-75.152;2023-05-19T02:12:11;102655.22;;;24.41;34.74
56632;BME280;42503;39.928;-75.152;2023-05-19T02:22:16;102658.63;;;24.43;34.57
56632;BME280;42503;39.928;-75.152;2023-05-19T02:32:19;102667.25;;;24.41;34.41
56632;BME280;42503;39.928;-75.152;2023-05-19T02:42:20;102649.06;;;24.39;34.59
56632;BME280;42503;39.928;-75.152;2023-05-19T02:52:22;102649.81;;;24.34;34.88
56632;BME280;42503;39.928;-75.152;2023-05-19T03:02:23;102653.41;;;24.29;34.60
56632;BME280;42503;39.928;-75.152;2023-05-19T03:12:24;102607.50;;;24.03;34.73
56632;BME280;42503;39.928;-75.152;2023-05-19T03:22:26;102646.66;;;24.25;34.73
56632;BME280;42503;39.928;-75.152;2023-05-19T03:32:27;102655.31;;;24.24;35.07
56632;BME280;42503;39.928;-75.152;2023-05-19T03:42:28;102646.53;;;24.15;34.88
56632;BME280;42503;39.928;-75.152;2023-05-19T03:52:33;102669.59;;;24.27;35.09
56632;BME280;42503;39.928;-75.152;2023-05-19T04:02:37;102677.41;;;24.25;34.93
56632;BME280;42503;39.928;-75.152;2023-05-19T04:12:38;102659.47;;;24.21;35.15
56632;BME280;42503;39.928;-75.152;2023-05-19T04:22:39;102657.72;;;24.15;35.25
56632;BME280;42503;39.928;-75.152;2023-05-19T04:32:41;102632.34;;;24.00;35.38
56632;BME280;42503;39.928;-75.152;2023-05-19T04:42:42;102647.91;;;24.13;35.36
56632;BME280;42503;39.928;-75.152;2023-05-19T04:52:48;102652.97;;;24.16;35.26
56632;BME280;42503;39.928;-75.152;2023-05-19T05:02:52;102633.63;;;24.14;35.31
56632;BME280;42503;39.928;-75.152;2023-05-19T05:12:57;102619.03;;;24.07;35.61
56632;BME280;42503;39.928;-75.152;2023-05-19T05:23:01;102610.97;;;24.11;35.76
56632;BME280;42503;39.928;-75.152;2023-05-19T05:33:03;102614.50;;;24.01;35.61
56632;BME280;42503;39.928;-75.152;2023-05-19T05:43:07;102612.84;;;24.05;35.71
56632;BME280;42503;39.928;-75.152;2023-05-19T05:53:13;102595.50;;;24.03;35.60
56632;BME280;42503;39.928;-75.152;2023-05-19T06:03:16;102579.81;;;24.02;35.83
56632;BME280;42503;39.928;-75.152;2023-05-19T06:13:20;102550.59;;;23.88;35.83
56632;BME280;42503;39.928;-75.152;2023-05-19T06:23:23;102572.78;;;23.99;35.69
56632;BME280;42503;39.928;-75.152;2023-05-19T06:33:29;102577.81;;;23.97;35.93
56632;BME280;42503;39.928;-75.152;2023-05-19T06:43:31;102553.44;;;23.93;35.96
56632;BME280;42503;39.928;-75.152;2023-05-19T06:53:35;102532.66;;;23.83;36.10
56632;BME280;42503;39.928;-75.152;2023-05-19T07:03:36;102548.69;;;23.93;35.99
56632;BME280;42503;39.928;-75.152;2023-05-19T07:13:38;102537.78;;;23.92;35.97
56632;BME280;42503;39.928;-75.152;2023-05-19T07:23:39;102540.31;;;23.93;36.22
56632;BME280;42503;39.928;-75.152;2023-05-19T07:33:41;102528.22;;;23.88;36.01
56632;BME280;42503;39.928;-75.152;2023-05-19T07:43:42;102529.06;;;23.88;36.04
56632;BME280;42503;39.928;-75.152;2023-05-19T07:53:43;102528.22;;;23.88;36.16
56632;BME280;42503;39.928;-75.152;2023-05-19T08:03:46;102520.34;;;23.84;36.15
56632;BME280;42503;39.928;-75.152;2023-05-19T08:13:48;102519.84;;;23.88;36.06
56632;BME280;42503;39.928;-75.152;2023-05-19T08:23:49;102513.13;;;23.89;36.05
56632;BME280;42503;39.928;-75.152;2023-05-19T08:33:51;102514.50;;;23.86;36.02
56632;BME280;42503;39.928;-75.152;2023-05-19T08:43:52;102521.53;;;23.89;36.19
56632;BME280;42503;39.928;-75.152;2023-05-19T08:53:58;102518.06;;;23.81;36.36
56632;BME280;42503;39.928;-75.152;2023-05-19T09:04:00;102508.06;;;23.86;36.25
56632;BME280;42503;39.928;-75.152;2023-05-19T09:14:03;102521.97;;;23.80;36.46
56632;BME280;42503;39.928;-75.152;2023-05-19T09:24:05;102505.22;;;23.80;36.41
56632;BME280;42503;39.928;-75.152;2023-05-19T09:34:11;102508.78;;;23.76;36.44
56632;BME280;42503;39.928;-75.152;2023-05-19T09:54:23;102531.50;;;23.79;36.31
56632;BME280;42503;39.928;-75.152;2023-05-19T10:04:29;102532.00;;;23.76;36.58
56632;BME280;42503;39.928;-75.152;2023-05-19T10:14:35;102537.59;;;23.76;36.59
56632;BME280;42503;39.928;-75.152;2023-05-19T10:24:36;102533.56;;;23.67;36.39
56632;BME280;42503;39.928;-75.152;2023-05-19T10:45:35;102574.91;;;23.65;36.63
56632;BME280;42503;39.928;-75.152;2023-05-19T11:05:47;102562.22;;;23.57;36.64
56632;BME280;42503;39.928;-75.152;2023-05-19T11:15:52;102576.50;;;23.61;36.78
56632;BME280;42503;39.928;-75.152;2023-05-19T11:25:53;102579.88;;;23.63;36.90
56632;BME280;42503;39.928;-75.152;2023-05-19T11:35:58;102570.25;;;23.54;36.97
56632;BME280;42503;39.928;-75.152;2023-05-19T11:46:00;102587.69;;;23.61;37.01
56632;BME280;42503;39.928;-75.152;2023-05-19T11:56:04;102584.91;;;23.61;37.14
56632;BME280;42503;39.928;-75.152;2023-05-19T12:06:06;102582.09;;;23.61;37.14
56632;BME280;42503;39.928;-75.152;2023-05-19T12:16:08;102577.84;;;23.58;36.92
56632;BME280;42503;39.928;-75.152;2023-05-19T12:26:10;102583.22;;;23.60;36.70
56632;BME280;42503;39.928;-75.152;2023-05-19T12:36:14;102587.97;;;23.59;37.25
56632;BME280;42503;39.928;-75.152;2023-05-19T12:46:17;102584.91;;;23.61;37.01
56632;BME280;42503;39.928;-75.152;2023-05-19T12:56:19;102604.56;;;23.66;36.92
56632;BME280;42503;39.928;-75.152;2023-05-19T13:06:21;102600.91;;;23.66;36.74
56632;BME280;42503;39.928;-75.152;2023-05-19T13:16:22;102620.28;;;23.72;36.80
56632;BME280;42503;39.928;-75.152;2023-05-19T13:26:23;102619.75;;;23.75;36.85
56632;BME280;42503;39.928;-75.152;2023-05-19T13:36:27;102578.06;;;23.52;36.83
56632;BME280;42503;39.928;-75.152;2023-05-19T13:46:31;102605.28;;;23.78;36.72
56632;BME280;42503;39.928;-75.152;2023-05-19T13:56:32;102612.50;;;23.74;36.73
56632;BME280;42503;39.928;-75.152;2023-05-19T14:06:34;102596.84;;;23.73;36.87
56632;BME280;42503;39.928;-75.152;2023-05-19T14:16:36;102595.28;;;23.82;36.51
56632;BME280;42503;39.928;-75.152;2023-05-19T14:26:37;102571.78;;;23.83;36.69
56632;BME280;42503;39.928;-75.152;2023-05-19T14:36:39;102575.75;;;23.88;36.72
56632;BME280;42503;39.928;-75.152;2023-05-19T14:46:40;102577.50;;;23.94;36.60
56632;BME280;42503;39.928;-75.152;2023-05-19T14:56:41;102575.88;;;23.98;36.53
56632;BME280;42503;39.928;-75.152;2023-05-19T15:06:43;102560.72;;;23.94;36.46
56632;BME280;42503;39.928;-75.152;2023-05-19T15:16:44;102543.63;;;23.90;36.37
56632;BME280;42503;39.928;-75.152;2023-05-19T15:26:51;102565.25;;;24.00;36.69
56632;BME280;42503;39.928;-75.152;2023-05-19T15:36:54;102554.66;;;24.02;36.52
56632;BME280;42503;39.928;-75.152;2023-05-19T15:46:55;102551.03;;;24.01;36.23
56632;BME280;42503;39.928;-75.152;2023-05-19T15:56:56;102521.00;;;23.92;36.27
56632;BME280;42503;39.928;-75.152;2023-05-19T16:06:58;102538.22;;;24.05;36.30
56632;BME280;42503;39.928;-75.152;2023-05-19T16:16:59;102511.81;;;23.96;36.52
56632;BME280;42503;39.928;-75.152;2023-05-19T16:27:00;102525.06;;;24.06;36.40
56632;BME280;42503;39.928;-75.152;2023-05-19T16:37:02;102516.69;;;24.06;36.46
56632;BME280;42503;39.928;-75.152;2023-05-19T16:47:03;102473.75;;;23.95;36.22
56632;BME280;42503;39.928;-75.152;2023-05-19T16:57:04;102485.97;;;24.11;36.32
56632;BME280;42503;39.928;-75.152;2023-05-19T17:07:06;102475.34;;;24.13;36.28
56632;BME280;42503;39.928;-75.152;2023-05-19T17:17:07;102482.03;;;24.12;36.10
56632;BME280;42503;39.928;-75.152;2023-05-19T17:27:08;102472.53;;;24.13;36.38
56632;BME280;42503;39.928;-75.152;2023-05-19T17:37:10;102444.75;;;24.01;36.35
56632;BME280;42503;39.928;-75.152;2023-05-19T17:47:11;102421.00;;;24.04;36.34
56632;BME280;42503;39.928;-75.152;2023-05-19T17:57:14;102428.38;;;24.15;36.28
56632;BME280;42503;39.928;-75.152;2023-05-19T18:07:18;102427.31;;;24.21;36.33
56632;BME280;42503;39.928;-75.152;2023-05-19T18:17:19;102420.03;;;24.20;36.12
56632;BME280;42503;39.928;-75.152;2023-05-19T18:27:20;102388.09;;;24.16;36.10
56632;BME280;42503;39.928;-75.152;2023-05-19T18:37:22;102381.44;;;24.22;36.10
56632;BME280;42503;39.928;-75.152;2023-05-19T18:47:23;102349.75;;;24.12;36.23
56632;BME280;42503;39.928;-75.152;2023-05-19T18:57:24;102380.63;;;24.27;36.03
56632;BME280;42503;39.928;-75.152;2023-05-19T19:07:28;102366.94;;;24.30;35.96
56632;BME280;42503;39.928;-75.152;2023-05-19T19:17:30;102328.88;;;24.24;36.08
56632;BME280;42503;39.928;-75.152;2023-05-19T19:27:31;102315.16;;;24.28;36.29
56632;BME280;42503;39.928;-75.152;2023-05-19T19:37:35;102288.34;;;24.32;35.92
56632;BME280;42503;39.928;-75.152;2023-05-19T19:47:36;102260.66;;;24.35;35.84
56632;BME280;42503;39.928;-75.152;2023-05-19T19:57:38;102266.00;;;24.37;35.74
56632;BME280;42503;39.928;-75.152;2023-05-19T20:07:39;102203.81;;;24.15;36.01
56632;BME280;42503;39.928;-75.152;2023-05-19T20:17:43;102217.06;;;24.40;35.82
56632;BME280;42503;39.928;-75.152;2023-05-19T20:27:44;102209.81;;;24.39;35.48
56632;BME280;42503;39.928;-75.152;2023-05-19T20:37:48;102208.13;;;24.43;35.70
56632;BME280;42503;39.928;-75.152;2023-05-19T20:47:51;102188.22;;;24.34;35.52
56632;BME280;42503;39.928;-75.152;2023-05-19T20:57:52;102179.53;;;24.35;35.60
56632;BME280;42503;39.928;-75.152;2023-05-19T21:07:53;102205.34;;;24.43;35.41
56632;BME280;42503;39.928;-75.152;2023-05-19T21:17:55;102223.25;;;24.47;35.68
56632;BME280;42503;39.928;-75.152;2023-05-19T21:27:56;102199.72;;;24.38;35.26
56632;BME280;42503;39.928;-75.152;2023-05-19T21:38:00;102223.25;;;24.47;35.51
56632;BME280;42503;39.928;-75.152;2023-05-19T21:48:05;102231.63;;;24.42;35.60
56632;BME280;42503;39.928;-75.152;2023-05-19T21:58:06;102170.59;;;24.33;35.77
56632;BME280;42503;39.928;-75.152;2023-05-19T22:08:07;102195.28;;;24.47;35.51
56632;BME280;42503;39.928;-75.152;2023-05-19T22:18:09;102172.53;;;24.33;35.74
56632;BME280;42503;39.928;-75.152;2023-05-19T22:28:10;102200.00;;;24.46;35.32
56632;BME280;42503;39.928;-75.152;2023-05-19T22:38:12;102207.31;;;24.47;35.27
56632;BME280;42503;39.928;-75.152;2023-05-19T22:48:18;102197.50;;;24.45;35.44
56632;BME280;42503;39.928;-75.152;2023-05-19T22:58:20;102217.66;;;24.47;35.36
56632;BME280;42503;39.928;-75.152;2023-05-19T23:08:21;102222.13;;;24.43;35.50
56632;BME280;42503;39.928;-75.152;2023-05-19T23:18:22;102226.91;;;24.47;35.40
56632;BME280;42503;39.928;-75.152;2023-05-19T23:28:24;102226.03;;;24.42;35.63
56632;BME280;42503;39.928;-75.152;2023-05-19T23:38:25;102234.41;;;24.42;35.80
56632;BME280;42503;39.928;-75.152;2023-05-19T23:48:28;102228.81;;;24.37;35.75
56632;BME280;42503;39.928;-75.152;2023-05-19T23:58:36;102225.41;;;24.34;35.88
